TimeMDT,TemperatureF,Dew PointF,Humidity,Sea Level PressureIn,VisibilityMPH,Wind Direction,Wind SpeedMPH,Gust SpeedMPH,PrecipitationIn,Events,Conditions,WindDirDegrees,DateUTC
12:15 AM,58.5,41.4,53,30.39,10.0,NE,6.9,-,N/A,,Clear,40,2013-07-01 06:15:00
12:35 AM,60.3,40.5,48,30.39,10.0,NE,8.1,-,N/A,,Clear,50,2013-07-01 06:35:00
12:55 AM,58.5,40.6,52,30.38,10.0,NNE,5.8,-,N/A,,Clear,20,2013-07-01 06:55:00
1:15 AM,57.6,40.5,53,30.39,10.0,NNE,3.5,-,N/A,,Clear,20,2013-07-01 07:15:00
1:35 AM,56.8,40.6,55,30.38,10.0,NNE,5.8,-,N/A,,Clear,20,2013-07-01 07:35:00
1:55 AM,58.8,40.3,50,30.38,10.0,East,3.5,-,N/A,,Clear,80,2013-07-01 07:55:00
2:15 AM,55.9,40.1,55,30.38,10.0,WSW,5.8,-,N/A,,Clear,250,2013-07-01 08:15:00
2:35 AM,55.9,40.3,56,30.39,10.0,South,4.6,-,N/A,,Clear,180,2013-07-01 08:35:00
2:55 AM,55.4,40.5,57,30.39,10.0,Calm,Calm,-,N/A,,Clear,0,2013-07-01 08:55:00
3:15 AM,57.0,40.5,54,30.39,10.0,ESE,4.6,-,N/A,,Clear,110,2013-07-01 09:15:00
3:35 AM,52.2,40.5,64,30.40,10.0,Calm,Calm,-,N/A,,Clear,0,2013-07-01 09:35:00
3:55 AM,53.8,40.5,61,30.41,10.0,South,3.5,-,N/A,,Clear,190,2013-07-01 09:55:00
4:15 AM,48.4,40.3,74,30.41,10.0,Calm,Calm,-,N/A,,Clear,0,2013-07-01 10:15:00
4:35 AM,49.3,41.0,73,30.42,10.0,Calm,Calm,-,N/A,,Clear,0,2013-07-01 10:35:00
4:55 AM,48.7,40.1,72,30.42,10.0,Calm,Calm,-,N/A,,Clear,0,2013-07-01 10:55:00
5:15 AM,51.8,40.3,65,30.43,10.0,NNE,9.2,-,N/A,,Clear,30,2013-07-01 11:15:00
5:35 AM,50.7,39.9,67,30.43,10.0,NNE,8.1,-,N/A,,Clear,30,2013-07-01 11:35:00
5:55 AM,51.6,39.7,64,30.43,10.0,NNE,4.6,-,N/A,,Clear,20,2013-07-01 11:55:00
6:15 AM,52.7,40.1,62,30.43,10.0,NNE,5.8,-,N/A,,Clear,30,2013-07-01 12:15:00
6:35 AM,52.7,40.1,62,30.43,10.0,East,3.5,-,N/A,,Clear,90,2013-07-01 12:35:00
6:55 AM,53.2,41.0,63,30.44,10.0,Calm,Calm,-,N/A,,Clear,0,2013-07-01 12:55:00
7:15 AM,56.5,41.7,58,30.44,10.0,Calm,Calm,-,N/A,,Clear,0,2013-07-01 13:15:00
7:35 AM,58.3,41.9,54,30.44,10.0,Calm,Calm,-,N/A,Thunderstorm,Clear,0,2013-07-01 13:35:00
7:55 AM,60.8,40.6,47,30.43,10.0,Calm,Calm,-,N/A,,Clear,0,2013-07-01 13:55:00
8:15 AM,62.8,41.7,46,30.43,10.0,NNE,3.5,-,N/A,,Clear,30,2013-07-01 14:15:00
8:35 AM,64.6,41.0,42,30.43,10.0,Calm,Calm,-,N/A,,Clear,0,2013-07-01 14:35:00
8:55 AM,65.5,40.3,40,30.43,10.0,Calm,Calm,-,N/A,,Clear,0,2013-07-01 14:55:00
9:15 AM,66.0,39.4,38,30.42,10.0,Calm,Calm,-,N/A,,Clear,0,2013-07-01 15:15:00
9:35 AM,67.6,38.8,35,30.42,10.0,SSW,4.6,-,N/A,,Clear,210,2013-07-01 15:35:00
9:55 AM,68.2,38.5,34,30.41,10.0,SW,4.6,-,N/A,,Clear,230,2013-07-01 15:55:00
10:15 AM,69.8,37.2,30,30.41,10.0,SW,4.6,-,N/A,,Clear,230,2013-07-01 16:15:00
10:35 AM,70.9,38.3,30,30.40,10.0,South,6.9,-,N/A,,Clear,190,2013-07-01 16:35:00
10:55 AM,71.6,37.9,29,30.40,10.0,South,3.5,-,N/A,,Clear,180,2013-07-01 16:55:00
11:15 AM,73.4,37.4,27,30.38,10.0,SSW,9.2,-,N/A,,Clear,200,2013-07-01 17:15:00
11:35 AM,74.8,36.9,25,30.38,10.0,West,6.9,-,N/A,,Scattered Clouds,260,2013-07-01 17:35:00
11:55 AM,76.1,37.4,25,30.38,10.0,SSW,8.1,16.1,N/A,,Clear,200,2013-07-01 17:55:00
12:15 PM,76.5,36.3,23,30.36,10.0,West,8.1,-,N/A,,Clear,260,2013-07-01 18:15:00
12:35 PM,78.6,35.4,21,30.36,10.0,WSW,11.5,16.1,N/A,,Clear,240,2013-07-01 18:35:00
12:55 PM,77.9,34.0,20,30.35,10.0,West,4.6,-,N/A,,Scattered Clouds,270,2013-07-01 18:55:00
1:15 PM,79.5,34.0,19,30.34,10.0,WSW,4.6,17.3,N/A,,Scattered Clouds,240,2013-07-01 19:15:00
1:35 PM,79.3,32.7,18,30.33,10.0,SW,8.1,-,N/A,,Scattered Clouds,220,2013-07-01 19:35:00
1:55 PM,80.4,33.1,18,30.32,10.0,South,4.6,16.1,N/A,,Scattered Clouds,170,2013-07-01 19:55:00
2:15 PM,80.1,33.8,19,30.32,10.0,SSW,8.1,20.7,N/A,,Mostly Cloudy,210,2013-07-01 20:15:00
2:35 PM,80.8,34.3,19,30.31,10.0,SW,13.8,20.7,N/A,,Mostly Cloudy,230,2013-07-01 20:35:00
2:55 PM,81.1,34.2,18,30.30,10.0,SW,12.7,21.9,N/A,,Scattered Clouds,230,2013-07-01 20:55:00
3:15 PM,82.0,33.3,17,30.30,10.0,WSW,9.2,16.1,N/A,,Clear,240,2013-07-01 21:15:00
3:35 PM,81.3,32.9,17,30.29,10.0,Calm,Calm,-,N/A,,Scattered Clouds,0,2013-07-01 21:35:00
3:55 PM,82.0,32.0,16,30.29,10.0,SW,5.8,-,N/A,,Mostly Cloudy,220,2013-07-01 21:55:00
4:15 PM,83.3,33.3,17,30.28,10.0,WNW,13.8,17.3,N/A,,Mostly Cloudy,300,2013-07-01 22:15:00
4:35 PM,83.7,32.0,16,30.28,10.0,NNW,3.5,17.3,N/A,,Scattered Clouds,330,2013-07-01 22:35:00
4:55 PM,81.7,27.7,14,30.28,10.0,East,9.2,35.7,N/A,Thunderstorm,Thunderstorm,80,2013-07-01 22:55:00
5:15 PM,82.0,32.0,16,30.28,10.0,East,6.9,17.3,N/A,Thunderstorm,Thunderstorm,80,2013-07-01 23:15:00
5:35 PM,80.6,34.9,19,30.28,10.0,SSE,9.2,-,N/A,,Clear,150,2013-07-01 23:35:00
5:55 PM,79.3,36.1,21,30.28,10.0,SSE,9.2,-,N/A,,Clear,150,2013-07-01 23:55:00
6:15 PM,75.9,38.1,26,30.28,10.0,SSE,12.7,18.4,N/A,,Clear,150,2013-07-02 00:15:00
6:35 PM,75.4,37.8,26,30.29,10.0,SSE,3.5,-,N/A,,Clear,160,2013-07-02 00:35:00
6:55 PM,75.2,38.3,26,30.29,10.0,SSE,3.5,-,N/A,,Clear,150,2013-07-02 00:55:00
7:15 PM,74.8,37.4,26,30.30,10.0,South,8.1,-,N/A,Thunderstorm,Thunderstorm,190,2013-07-02 01:15:00
7:35 PM,74.3,37.8,27,30.30,10.0,SSE,8.1,-,N/A,,Clear,160,2013-07-02 01:35:00
7:55 PM,72.9,38.7,29,30.30,10.0,Calm,Calm,-,N/A,Rain,Light Rain,0,2013-07-02 01:55:00
8:15 PM,73.4,38.3,28,30.32,10.0,Calm,Calm,-,N/A,Thunderstorm,Clear,0,2013-07-02 02:15:00
8:35 PM,70.5,39.2,32,30.32,10.0,Calm,Calm,-,N/A,,Clear,0,2013-07-02 02:35:00
8:55 PM,68.5,39.9,35,30.33,10.0,NNE,3.5,-,N/A,Thunderstorm,Scattered Clouds,30,2013-07-02 02:55:00
9:15 PM,69.3,39.6,34,30.35,10.0,Calm,Calm,-,N/A,,Scattered Clouds,0,2013-07-02 03:15:00
9:35 PM,68.7,40.1,35,30.36,10.0,NNE,4.6,-,N/A,,Scattered Clouds,30,2013-07-02 03:35:00
9:55 PM,68.4,40.5,36,30.36,10.0,NNE,4.6,-,N/A,,Scattered Clouds,30,2013-07-02 03:55:00
10:15 PM,69.6,40.3,34,30.37,10.0,ENE,4.6,-,N/A,,Scattered Clouds,70,2013-07-02 04:15:00
10:35 PM,68.4,40.1,36,30.37,10.0,ENE,9.2,-,N/A,,Clear,60,2013-07-02 04:35:00
10:55 PM,67.1,40.6,38,30.38,10.0,East,3.5,-,N/A,,Clear,100,2013-07-02 04:55:00
11:15 PM,66.0,40.5,39,30.38,10.0,Calm,Calm,-,N/A,,Clear,0,2013-07-02 05:15:00
11:35 PM,61.3,41.5,48,30.39,10.0,WSW,4.6,-,N/A,,Clear,250,2013-07-02 05:35:00
11:55 PM,61.5,41.5,48,30.39,10.0,West,3.5,-,N/A,,Clear,270,2013-07-02 05:55:00